Terminal Aerodrome Forecast
Issued by NWS Corpus Christi, TX

Home | Current Version | Previous Version | Text Only | Print | Product List | Glossary On
Versions: 1 2 3 4 5 6 7 8 9 10 11 12 13 14 15 16 17
669
FTUS44 KCRP 310526
TAFCRP
TAF
KCRP 310526Z 3106/0106 15005KT P6SM SCT022 BKN250
      TEMPO 3109/3113 BKN018
     FM311600 15013KT P6SM BKN035 PROB30 3120/3124 TSRA BKN025CB
     FM010200 16012KT P6SM SCT020=

USA.gov is the U.S. government's official web portal to all federal, state and local government web resources and services.